sensor_id;sensor_type;location;lat;lon;timestamp;pressure;altitude;pressure_sealevel;temperature;humidity
33949;BME280;20229;49.856;19.030;2023-11-22T00:02:18;101801.41;;;2.80;100.00
33949;BME280;20229;49.856;19.030;2023-11-22T00:07:34;101792.44;;;2.75;100.00
33949;BME280;20229;49.856;19.030;2023-11-22T00:12:48;101806.84;;;2.71;99.95
33949;BME280;20229;49.856;19.030;2023-11-22T00:18:04;101809.60;;;2.65;100.00
33949;BME280;20229;49.856;19.030;2023-11-22T00:23:18;101822.16;;;2.64;99.98
33949;BME280;20229;49.856;19.030;2023-11-22T00:28:33;101831.20;;;2.59;100.00
33949;BME280;20229;49.856;19.030;2023-11-22T00:33:49;101833.88;;;2.57;100.00
33949;BME280;20229;49.856;19.030;2023-11-22T00:39:04;101842.00;;;2.56;100.00
33949;BME280;20229;49.856;19.030;2023-11-22T00:44:19;101840.22;;;2.52;100.00
33949;BME280;20229;49.856;19.030;2023-11-22T00:49:33;101831.27;;;2.45;100.00
33949;BME280;20229;49.856;19.030;2023-11-22T00:54:46;101839.38;;;2.41;100.00
33949;BME280;20229;49.856;19.030;2023-11-22T01:00:01;101845.66;;;2.36;100.00
33949;BME280;20229;49.856;19.030;2023-11-22T01:05:17;101841.20;;;2.32;100.00
33949;BME280;20229;49.856;19.030;2023-11-22T01:10:31;101843.91;;;2.28;100.00
33949;BME280;20229;49.856;19.030;2023-11-22T01:15:45;101850.20;;;2.28;100.00
33949;BME280;20229;49.856;19.030;2023-11-22T01:21:00;101852.91;;;2.28;100.00
33949;BME280;20229;49.856;19.030;2023-11-22T01:26:17;101857.41;;;2.26;100.00
33949;BME280;20229;49.856;19.030;2023-11-22T01:31:31;101854.73;;;2.23;100.00
33949;BME280;20229;49.856;19.030;2023-11-22T01:36:49;101863.69;;;2.22;100.00
33949;BME280;20229;49.856;19.030;2023-11-22T01:42:05;101878.07;;;2.21;100.00
33949;BME280;20229;49.856;19.030;2023-11-22T01:47:20;101889.73;;;2.19;100.00
33949;BME280;20229;49.856;19.030;2023-11-22T01:52:35;101870.03;;;2.07;100.00
33949;BME280;20229;49.856;19.030;2023-11-22T01:57:49;101891.56;;;2.13;100.00
33949;BME280;20229;49.856;19.030;2023-11-22T02:03:03;101888.87;;;2.12;100.00
33949;BME280;20229;49.856;19.030;2023-11-22T02:08:17;101906.84;;;2.10;100.00
33949;BME280;20229;49.856;19.030;2023-11-22T02:13:33;101908.63;;;2.08;100.00
33949;BME280;20229;49.856;19.030;2023-11-22T02:18:48;101915.84;;;2.06;100.00
33949;BME280;20229;49.856;19.030;2023-11-22T02:24:02;101919.44;;;2.02;100.00
33949;BME280;20229;49.856;19.030;2023-11-22T02:29:16;101919.41;;;2.05;100.00
33949;BME280;20229;49.856;19.030;2023-11-22T02:34:31;101916.71;;;2.05;100.00
33949;BME280;20229;49.856;19.030;2023-11-22T02:39:57;101923.01;;;2.04;100.00
33949;BME280;20229;49.856;19.030;2023-11-22T02:45:16;101923.01;;;2.01;100.00
33949;BME280;20229;49.856;19.030;2023-11-22T02:50:31;101930.22;;;1.99;100.00
33949;BME280;20229;49.856;19.030;2023-11-22T02:55:50;101892.54;;;1.71;100.00
33949;BME280;20229;49.856;19.030;2023-11-22T03:01:04;101942.77;;;1.97;100.00
33949;BME280;20229;49.856;19.030;2023-11-22T03:06:18;101958.03;;;1.93;100.00
33949;BME280;20229;49.856;19.030;2023-11-22T03:11:33;101967.92;;;1.93;100.00
33949;BME280;20229;49.856;19.030;2023-11-22T03:16:48;101979.59;;;1.88;100.00
33949;BME280;20229;49.856;19.030;2023-11-22T03:22:02;101989.45;;;1.86;100.00
33949;BME280;20229;49.856;19.030;2023-11-22T03:27:17;102002.02;;;1.81;100.00
33949;BME280;20229;49.856;19.030;2023-11-22T03:32:31;101994.86;;;1.80;100.00
33949;BME280;20229;49.856;19.030;2023-11-22T03:37:46;102002.02;;;1.75;100.00
33949;BME280;20229;49.856;19.030;2023-11-22T03:43:01;102012.79;;;1.75;100.00
33949;BME280;20229;49.856;19.030;2023-11-22T03:48:15;102029.82;;;1.73;100.00
33949;BME280;20229;49.856;19.030;2023-11-22T03:53:29;102033.44;;;1.70;100.00
33949;BME280;20229;49.856;19.030;2023-11-22T03:58:45;102046.87;;;1.65;100.00
33949;BME280;20229;49.856;19.030;2023-11-22T04:03:59;102056.75;;;1.68;100.00
33949;BME280;20229;49.856;19.030;2023-11-22T04:09:13;102060.34;;;1.65;100.00
33949;BME280;20229;49.856;19.030;2023-11-22T04:14:27;102069.31;;;1.64;100.00
33949;BME280;20229;49.856;19.030;2023-11-22T04:19:41;102088.15;;;1.60;100.00
33949;BME280;20229;49.856;19.030;2023-11-22T04:24:55;102080.95;;;1.62;100.00
33949;BME280;20229;49.856;19.030;2023-11-22T04:30:10;102095.33;;;1.61;100.00
33949;BME280;20229;49.856;19.030;2023-11-22T04:35:27;102118.64;;;1.62;100.00
33949;BME280;20229;49.856;19.030;2023-11-22T04:40:41;102130.30;;;1.58;100.00
33949;BME280;20229;49.856;19.030;2023-11-22T04:45:59;102150.04;;;1.58;100.00
33949;BME280;20229;49.856;19.030;2023-11-22T04:51:14;102153.63;;;1.57;100.00
33949;BME280;20229;49.856;19.030;2023-11-22T04:56:30;102171.55;;;1.55;100.00
33949;BME280;20229;49.856;19.030;2023-11-22T05:01:44;102177.86;;;1.56;100.00
33949;BME280;20229;49.856;19.030;2023-11-22T05:06:58;102183.24;;;1.56;100.00
33949;BME280;20229;49.856;19.030;2023-11-22T05:12:12;102203.84;;;1.55;100.00
33949;BME280;20229;49.856;19.030;2023-11-22T05:17:28;102211.02;;;1.50;100.00
33949;BME280;20229;49.856;19.030;2023-11-22T05:22:44;102208.32;;;1.52;100.00
33949;BME280;20229;49.856;19.030;2023-11-22T05:27:57;102211.89;;;1.48;100.00
33949;BME280;20229;49.856;19.030;2023-11-22T05:33:12;102219.07;;;1.46;100.00
33949;BME280;20229;49.856;19.030;2023-11-22T05:38:26;102222.64;;;1.44;100.00
33949;BME280;20229;49.856;19.030;2023-11-22T05:43:40;102219.05;;;1.42;100.00
33949;BME280;20229;49.856;19.030;2023-11-22T05:48:57;102210.06;;;1.40;100.00
33949;BME280;20229;49.856;19.030;2023-11-22T05:54:11;102211.84;;;1.37;100.00
33949;BME280;20229;49.856;19.030;2023-11-22T05:59:26;102219.89;;;1.32;100.00
33949;BME280;20229;49.856;19.030;2023-11-22T06:04:40;102232.43;;;1.29;100.00
33949;BME280;20229;49.856;19.030;2023-11-22T06:09:56;102247.73;;;1.34;100.00
33949;BME280;20229;49.856;19.030;2023-11-22T06:15:10;102258.45;;;1.31;100.00
33949;BME280;20229;49.856;19.030;2023-11-22T06:20:25;102263.82;;;1.28;100.00
33949;BME280;20229;49.856;19.030;2023-11-22T06:25:41;102272.75;;;1.27;100.00
33949;BME280;20229;49.856;19.030;2023-11-22T06:30:57;102283.51;;;1.27;100.00
33949;BME280;20229;49.856;19.030;2023-11-22T06:36:10;102297.00;;;1.29;100.00
33949;BME280;20229;49.856;19.030;2023-11-22T06:41:28;102293.41;;;1.30;100.00
33949;BME280;20229;49.856;19.030;2023-11-22T06:46:44;102292.48;;;1.26;100.00
33949;BME280;20229;49.856;19.030;2023-11-22T06:51:59;102292.48;;;1.25;100.00
33949;BME280;20229;49.856;19.030;2023-11-22T06:57:13;102299.64;;;1.21;100.00
33949;BME280;20229;49.856;19.030;2023-11-22T07:02:27;102310.34;;;1.16;100.00
33949;BME280;20229;49.856;19.030;2023-11-22T07:07:41;102312.09;;;1.13;100.00
33949;BME280;20229;49.856;19.030;2023-11-22T07:12:55;102319.34;;;1.17;100.00
33949;BME280;20229;49.856;19.030;2023-11-22T07:18:09;102330.06;;;1.15;100.00
33949;BME280;20229;49.856;19.030;2023-11-22T07:23:25;102327.34;;;1.12;100.00
33949;BME280;20229;49.856;19.030;2023-11-22T07:28:42;102349.79;;;1.16;100.00
33949;BME280;20229;49.856;19.030;2023-11-22T07:33:56;102343.51;;;1.14;100.00
33949;BME280;20229;49.856;19.030;2023-11-22T07:39:12;102364.13;;;1.15;100.00
33949;BME280;20229;49.856;19.030;2023-11-22T07:44:26;102355.17;;;1.16;100.00
33949;BME280;20229;49.856;19.030;2023-11-22T07:49:41;102357.86;;;1.14;100.00
33949;BME280;20229;49.856;19.030;2023-11-22T07:54:57;102384.80;;;1.17;100.00
33949;BME280;20229;49.856;19.030;2023-11-22T08:00:12;102384.76;;;1.14;100.00
33949;BME280;20229;49.856;19.030;2023-11-22T08:05:26;102385.65;;;1.15;100.00
33949;BME280;20229;49.856;19.030;2023-11-22T08:10:42;102399.10;;;1.13;100.00
33949;BME280;20229;49.856;19.030;2023-11-22T08:15:57;102420.55;;;1.09;100.00
33949;BME280;20229;49.856;19.030;2023-11-22T08:21:11;102424.13;;;1.06;100.00
33949;BME280;20229;49.856;19.030;2023-11-22T08:26:25;102420.58;;;1.10;100.00
33949;BME280;20229;49.856;19.030;2023-11-22T08:31:41;102419.69;;;1.10;100.00
33949;BME280;20229;49.856;19.030;2023-11-22T08:36:55;102425.96;;;1.10;100.00
33949;BME280;20229;49.856;19.030;2023-11-22T08:42:09;102436.70;;;1.07;100.00
33949;BME280;20229;49.856;19.030;2023-11-22T08:47:23;102434.85;;;1.05;100.00
33949;BME280;20229;49.856;19.030;2023-11-22T08:52:38;102444.77;;;1.09;100.00
33949;BME280;20229;49.856;19.030;2023-11-22T08:57:53;102457.31;;;1.07;100.00
33949;BME280;20229;49.856;19.030;2023-11-22T09:03:08;102444.73;;;1.06;100.00
33949;BME280;20229;49.856;19.030;2023-11-22T09:08:27;102438.45;;;1.05;100.00
33949;BME280;20229;49.856;19.030;2023-11-22T09:13:43;102464.41;;;1.02;100.00
33949;BME280;20229;49.856;19.030;2023-11-22T09:18:59;102462.57;;;0.98;100.00
33949;BME280;20229;49.856;19.030;2023-11-22T09:24:15;102471.58;;;1.00;100.00
33949;BME280;20229;49.856;19.030;2023-11-22T09:29:29;102476.10;;;1.05;100.00
33949;BME280;20229;49.856;19.030;2023-11-22T09:34:42;102468.03;;;1.05;100.00
33949;BME280;20229;49.856;19.030;2023-11-22T09:39:57;102491.42;;;1.11;100.00
33949;BME280;20229;49.856;19.030;2023-11-22T09:45:12;102490.48;;;1.09;100.00
33949;BME280;20229;49.856;19.030;2023-11-22T09:50:40;102495.83;;;1.04;100.00
33949;BME280;20229;49.856;19.030;2023-11-22T09:55:55;102501.20;;;1.03;100.00
33949;BME280;20229;49.856;19.030;2023-11-22T10:01:13;102506.55;;;1.01;100.00
33949;BME280;20229;49.856;19.030;2023-11-22T10:08:39;102525.37;;;1.00;100.00
33949;BME280;20229;49.856;19.030;2023-11-22T10:14:04;102546.84;;;0.97;100.00
33949;BME280;20229;49.856;19.030;2023-11-22T10:19:19;102547.78;;;1.00;100.00
33949;BME280;20229;49.856;19.030;2023-11-22T10:24:35;102535.20;;;0.98;100.00
33949;BME280;20229;49.856;19.030;2023-11-22T10:29:50;102533.44;;;1.00;100.00
33949;BME280;20229;49.856;19.030;2023-11-22T10:35:07;102538.77;;;0.98;100.00
33949;BME280;20229;49.856;19.030;2023-11-22T10:40:21;102530.70;;;0.98;100.00
33949;BME280;20229;49.856;19.030;2023-11-22T10:45:36;102526.17;;;0.94;100.00
33949;BME280;20229;49.856;19.030;2023-11-22T10:50:53;102524.46;;;0.99;100.00
33949;BME280;20229;49.856;19.030;2023-11-22T10:56:14;102520.80;;;0.94;100.00
33949;BME280;20229;49.856;19.030;2023-11-22T11:01:30;102519.05;;;0.96;100.00
33949;BME280;20229;49.856;19.030;2023-11-22T11:06:51;102513.63;;;0.93;100.00
33949;BME280;20229;49.856;19.030;2023-11-22T11:12:06;102517.25;;;0.97;100.00
33949;BME280;20229;49.856;19.030;2023-11-22T11:17:21;102511.02;;;1.01;100.00
33949;BME280;20229;49.856;19.030;2023-11-22T11:22:37;102528.10;;;1.06;100.00
33949;BME280;20229;49.856;19.030;2023-11-22T11:27:58;102534.34;;;1.02;100.00
33949;BME280;20229;49.856;19.030;2023-11-22T11:33:27;102525.45;;;1.09;100.00
33949;BME280;20229;49.856;19.030;2023-11-22T11:38:35;102540.73;;;1.11;100.00
33949;BME280;20229;49.856;19.030;2023-11-22T11:43:50;102564.05;;;1.12;100.00
33949;BME280;20229;49.856;19.030;2023-11-22T11:49:08;102556.88;;;1.13;100.00
33949;BME280;20229;49.856;19.030;2023-11-22T11:54:22;102577.54;;;1.14;100.00
33949;BME280;20229;49.856;19.030;2023-11-22T11:59:36;102573.94;;;1.13;99.87
33949;BME280;20229;49.856;19.030;2023-11-22T12:04:51;102576.63;;;1.15;100.00
33949;BME280;20229;49.856;19.030;2023-11-22T12:10:07;102567.69;;;1.16;100.00
33949;BME280;20229;49.856;19.030;2023-11-22T12:15:22;102581.08;;;1.11;98.59
33949;BME280;20229;49.856;19.030;2023-11-22T12:20:36;102575.70;;;1.10;99.75
33949;BME280;20229;49.856;19.030;2023-11-22T12:25:54;102572.16;;;1.14;99.19
33949;BME280;20229;49.856;19.030;2023-11-22T12:31:14;102573.01;;;1.11;99.03
33949;BME280;20229;49.856;19.030;2023-11-22T12:36:29;102572.16;;;1.14;99.92
33949;BME280;20229;49.856;19.030;2023-11-22T12:41:48;102577.50;;;1.12;99.29
33949;BME280;20229;49.856;19.030;2023-11-22T12:47:04;102570.33;;;1.13;99.78
33949;BME280;20229;49.856;19.030;2023-11-22T12:52:26;102575.70;;;1.13;99.16
33949;BME280;20229;49.856;19.030;2023-11-22T12:57:41;102582.91;;;1.14;99.25
33949;BME280;20229;49.856;19.030;2023-11-22T13:02:59;102603.53;;;1.13;98.83
33949;BME280;20229;49.856;19.030;2023-11-22T13:08:15;102591.88;;;1.14;98.94
33949;BME280;20229;49.856;19.030;2023-11-22T13:13:31;102590.98;;;1.14;98.82
33949;BME280;20229;49.856;19.030;2023-11-22T13:18:48;102577.54;;;1.14;99.04
33949;BME280;20229;49.856;19.030;2023-11-22T13:24:02;102585.52;;;1.09;98.93
33949;BME280;20229;49.856;19.030;2023-11-22T13:29:20;102597.22;;;1.10;98.98
33949;BME280;20229;49.856;19.030;2023-11-22T13:34:34;102602.60;;;1.10;98.90
33949;BME280;20229;49.856;19.030;2023-11-22T13:39:48;102609.73;;;1.08;99.30
33949;BME280;20229;49.856;19.030;2023-11-22T13:45:02;102596.29;;;1.09;98.98
33949;BME280;20229;49.856;19.030;2023-11-22T13:50:18;102613.35;;;1.10;99.12
33949;BME280;20229;49.856;19.030;2023-11-22T13:55:40;102629.45;;;1.08;99.31
33949;BME280;20229;49.856;19.030;2023-11-22T14:00:54;102620.48;;;1.09;99.47
33949;BME280;20229;49.856;19.030;2023-11-22T14:06:08;102618.69;;;1.07;98.59
33949;BME280;20229;49.856;19.030;2023-11-22T14:11:24;102615.92;;;1.02;98.31
33949;BME280;20229;49.856;19.030;2023-11-22T14:16:38;102623.98;;;1.01;97.34
33949;BME280;20229;49.856;19.030;2023-11-22T14:21:58;102647.23;;;0.95;98.00
33949;BME280;20229;49.856;19.030;2023-11-22T14:27:12;102674.07;;;0.92;98.81
33949;BME280;20229;49.856;19.030;2023-11-22T14:32:25;102669.55;;;0.91;98.95
33949;BME280;20229;49.856;19.030;2023-11-22T14:37:40;102668.73;;;0.95;99.07
33949;BME280;20229;49.856;19.030;2023-11-22T14:42:55;102682.20;;;0.99;98.50
33949;BME280;20229;49.856;19.030;2023-11-22T14:48:10;102693.86;;;0.98;98.52
33949;BME280;20229;49.856;19.030;2023-11-22T14:53:26;102679.52;;;0.99;98.15
33949;BME280;20229;49.856;19.030;2023-11-22T14:58:41;102664.27;;;0.98;98.39
33949;BME280;20229;49.856;19.030;2023-11-22T15:03:56;102655.31;;;0.97;97.72
33949;BME280;20229;49.856;19.030;2023-11-22T15:09:11;102664.22;;;0.94;98.42
33949;BME280;20229;49.856;19.030;2023-11-22T15:14:33;102666.05;;;0.95;98.16
33949;BME280;20229;49.856;19.030;2023-11-22T15:19:47;102659.68;;;0.90;98.77
33949;BME280;20229;49.856;19.030;2023-11-22T15:25:01;102654.31;;;0.90;98.70
33949;BME280;20229;49.856;19.030;2023-11-22T15:30:15;102659.63;;;0.87;98.50
33949;BME280;20229;49.856;19.030;2023-11-22T15:35:32;102659.63;;;0.87;98.72
33949;BME280;20229;49.856;19.030;2023-11-22T15:40:46;102654.21;;;0.84;98.90
33949;BME280;20229;49.856;19.030;2023-11-22T15:46:00;102671.23;;;0.83;98.60
33949;BME280;20229;49.856;19.030;2023-11-22T15:51:14;102673.92;;;0.83;99.10
33949;BME280;20229;49.856;19.030;2023-11-22T15:56:31;102678.45;;;0.87;99.07
33949;BME280;20229;49.856;19.030;2023-11-22T16:01:45;102680.25;;;0.85;99.01
33949;BME280;20229;49.856;19.030;2023-11-22T16:07:04;102687.37;;;0.85;98.78
33949;BME280;20229;49.856;19.030;2023-11-22T16:12:19;102679.31;;;0.85;98.82
33949;BME280;20229;49.856;19.030;2023-11-22T16:17:34;102682.88;;;0.84;98.64
33949;BME280;20229;49.856;19.030;2023-11-22T16:22:49;102670.29;;;0.81;98.87
33949;BME280;20229;49.856;19.030;2023-11-22T16:28:03;102666.75;;;0.82;98.65
33949;BME280;20229;49.856;19.030;2023-11-22T16:33:17;102643.41;;;0.81;98.45
33949;BME280;20229;49.856;19.030;2023-11-22T16:38:39;102631.80;;;0.84;98.00
33949;BME280;20229;49.856;19.030;2023-11-22T16:43:53;102636.18;;;0.77;98.54
33949;BME280;20229;49.856;19.030;2023-11-22T16:49:08;102634.42;;;0.79;98.71
33949;BME280;20229;49.856;19.030;2023-11-22T16:54:23;102634.42;;;0.79;98.37
33949;BME280;20229;49.856;19.030;2023-11-22T16:59:37;102649.72;;;0.82;98.65
33949;BME280;20229;49.856;19.030;2023-11-22T17:04:51;102655.95;;;0.79;97.94
33949;BME280;20229;49.856;19.030;2023-11-22T17:10:11;102659.52;;;0.78;98.65
33949;BME280;20229;49.856;19.030;2023-11-22T17:15:28;102683.72;;;0.78;98.56
33949;BME280;20229;49.856;19.030;2023-11-22T17:20:47;102684.57;;;0.77;98.44
33949;BME280;20229;49.856;19.030;2023-11-22T17:26:01;102724.00;;;0.75;98.41
33949;BME280;20229;49.856;19.030;2023-11-22T17:31:16;102715.93;;;0.75;98.56
33949;BME280;20229;49.856;19.030;2023-11-22T17:36:30;102752.60;;;0.71;98.89
33949;BME280;20229;49.856;19.030;2023-11-22T17:41:45;102732.01;;;0.72;98.71
33949;BME280;20229;49.856;19.030;2023-11-22T17:46:59;102723.05;;;0.73;98.72
33949;BME280;20229;49.856;19.030;2023-11-22T17:52:15;102697.05;;;0.74;98.75
33949;BME280;20229;49.856;19.030;2023-11-22T17:57:30;102692.58;;;0.73;98.60
33949;BME280;20229;49.856;19.030;2023-11-22T18:02:44;102675.55;;;0.72;98.49
33949;BME280;20229;49.856;19.030;2023-11-22T18:07:58;102683.62;;;0.72;98.43
33949;BME280;20229;49.856;19.030;2023-11-22T18:13:15;102696.16;;;0.71;98.10
33949;BME280;20229;49.856;19.030;2023-11-22T18:18:29;102678.19;;;0.69;98.57
33949;BME280;20229;49.856;19.030;2023-11-22T18:23:46;102696.11;;;0.70;98.51
33949;BME280;20229;49.856;19.030;2023-11-22T18:29:04;102705.08;;;0.70;98.58
33949;BME280;20229;49.856;19.030;2023-11-22T18:34:18;102714.02;;;0.69;98.37
33949;BME280;20229;49.856;19.030;2023-11-22T18:39:36;102731.01;;;0.67;98.75
33949;BME280;20229;49.856;19.030;2023-11-22T18:44:50;102739.94;;;0.64;98.11
33949;BME280;20229;49.856;19.030;2023-11-22T18:50:05;102749.80;;;0.64;98.43
33949;BME280;20229;49.856;19.030;2023-11-22T18:55:20;102721.07;;;0.61;97.77
33949;BME280;20229;49.856;19.030;2023-11-22T19:00:35;102706.73;;;0.62;98.02
33949;BME280;20229;49.856;19.030;2023-11-22T19:05:51;102677.21;;;0.64;97.62
33949;BME280;20229;49.856;19.030;2023-11-22T19:11:09;102666.37;;;0.59;97.67
33949;BME280;20229;49.856;19.030;2023-11-22T19:16:33;102668.16;;;0.59;97.86
33949;BME280;20229;49.856;19.030;2023-11-22T19:21:51;102659.20;;;0.60;98.09
33949;BME280;20229;49.856;19.030;2023-11-22T19:27:08;102668.21;;;0.62;97.96
33949;BME280;20229;49.856;19.030;2023-11-22T19:32:22;102678.91;;;0.59;97.88
33949;BME280;20229;49.856;19.030;2023-11-22T19:37:36;102665.52;;;0.60;97.69
33949;BME280;20229;49.856;19.030;2023-11-22T19:42:51;102659.20;;;0.60;98.03
33949;BME280;20229;49.856;19.030;2023-11-22T19:48:05;102662.84;;;0.62;98.15
33949;BME280;20229;49.856;19.030;2023-11-22T19:53:20;102655.73;;;0.64;98.06
33949;BME280;20229;49.856;19.030;2023-11-22T19:58:36;102657.52;;;0.65;97.87
33949;BME280;20229;49.856;19.030;2023-11-22T20:03:50;102660.16;;;0.63;97.71
33949;BME280;20229;49.856;19.030;2023-11-22T20:09:15;102673.65;;;0.65;97.92
33949;BME280;20229;49.856;19.030;2023-11-22T20:14:34;102670.91;;;0.63;97.71
33949;BME280;20229;49.856;19.030;2023-11-22T20:19:54;102657.47;;;0.62;97.25
33949;BME280;20229;49.856;19.030;2023-11-22T20:25:13;102652.09;;;0.62;97.22
33949;BME280;20229;49.856;19.030;2023-11-22T20:30:34;102649.45;;;0.65;97.25
33949;BME280;20229;49.856;19.030;2023-11-22T20:35:52;102647.66;;;0.64;97.17
33949;BME280;20229;49.856;19.030;2023-11-22T20:41:06;102643.96;;;0.57;96.76
33949;BME280;20229;49.856;19.030;2023-11-22T20:46:20;102647.48;;;0.53;96.50
33949;BME280;20229;49.856;19.030;2023-11-22T20:51:34;102629.63;;;0.57;96.63
33949;BME280;20229;49.856;19.030;2023-11-22T20:56:49;102619.77;;;0.59;96.51
33949;BME280;20229;49.856;19.030;2023-11-22T21:02:03;102636.85;;;0.61;95.71
33949;BME280;20229;49.856;19.030;2023-11-22T21:07:17;102642.19;;;0.59;95.48
33949;BME280;20229;49.856;19.030;2023-11-22T21:12:32;102601.02;;;0.60;94.73
33949;BME280;20229;49.856;19.030;2023-11-22T21:17:46;102591.05;;;0.53;94.82
33949;BME280;20229;49.856;19.030;2023-11-22T21:23:01;102591.06;;;0.55;94.95
33949;BME280;20229;49.856;19.030;2023-11-22T21:28:16;102576.73;;;0.56;95.11
33949;BME280;20229;49.856;19.030;2023-11-22T21:33:31;102566.88;;;0.56;94.91
33949;BME280;20229;49.856;19.030;2023-11-22T21:38:45;102559.74;;;0.57;94.91
33949;BME280;20229;49.856;19.030;2023-11-22T21:43:59;102566.03;;;0.59;95.00
33949;BME280;20229;49.856;19.030;2023-11-22T21:49:13;102553.49;;;0.58;95.55
33949;BME280;20229;49.856;19.030;2023-11-22T21:54:27;102532.03;;;0.61;95.04
33949;BME280;20229;49.856;19.030;2023-11-22T21:59:41;102540.95;;;0.60;94.81
33949;BME280;20229;49.856;19.030;2023-11-22T22:04:55;102540.95;;;0.60;94.81
33949;BME280;20229;49.856;19.030;2023-11-22T22:10:09;102529.34;;;0.61;95.22
33949;BME280;20229;49.856;19.030;2023-11-22T22:15:25;102518.59;;;0.62;95.24
33949;BME280;20229;49.856;19.030;2023-11-22T22:20:41;102524.83;;;0.60;95.40
33949;BME280;20229;49.856;19.030;2023-11-22T22:25:56;102516.76;;;0.60;95.09
33949;BME280;20229;49.856;19.030;2023-11-22T22:31:10;102522.09;;;0.54;95.48
33949;BME280;20229;49.856;19.030;2023-11-22T22:36:25;102499.70;;;0.56;95.38
33949;BME280;20229;49.856;19.030;2023-11-22T22:41:40;102489.84;;;0.55;95.23
33949;BME280;20229;49.856;19.030;2023-11-22T22:46:54;102498.79;;;0.56;95.29
33949;BME280;20229;49.856;19.030;2023-11-22T22:52:08;102491.63;;;0.56;95.33
33949;BME280;20229;49.856;19.030;2023-11-22T22:57:22;102492.56;;;0.57;95.24
33949;BME280;20229;49.856;19.030;2023-11-22T23:02:36;102509.59;;;0.57;94.84
33949;BME280;20229;49.856;19.030;2023-11-22T23:07:50;102497.89;;;0.54;94.58
33949;BME280;20229;49.856;19.030;2023-11-22T23:13:04;102483.52;;;0.52;94.89
33949;BME280;20229;49.856;19.030;2023-11-22T23:18:20;102489.84;;;0.55;94.68
33949;BME280;20229;49.856;19.030;2023-11-22T23:23:36;102487.09;;;0.51;95.04
33949;BME280;20229;49.856;19.030;2023-11-22T23:28:50;102484.37;;;0.47;95.03
33949;BME280;20229;49.856;19.030;2023-11-22T23:34:04;102467.30;;;0.45;95.28
33949;BME280;20229;49.856;19.030;2023-11-22T23:39:21;102439.59;;;0.46;95.44
33949;BME280;20229;49.856;19.030;2023-11-22T23:44:35;102447.63;;;0.46;95.32
33949;BME280;20229;49.856;19.030;2023-11-22T23:49:49;102437.80;;;0.47;95.01
33949;BME280;20229;49.856;19.030;2023-11-22T23:55:04;102402.82;;;0.45;95.57
